Williams Lake Airport
CYWL : now visible

Airfield :











YOU CAN JOIN US ON...

 
LOGIN :

Register | Disclaimer

   EN    FR    IT 

 









Legend :    VFR   Marginal VFR   IFR   Intensive IFR   Very Intensive IFR
Visi :
Ceiling :
>= 8 km
>= 3000ft
5 to 8 km
1000 to 3000 ft
1500m to 5 km
500 to 1000 ft
800 to 1500m
200 to 500 ft
< 800m
< 200 ft
Symbols :   Thunderstorms  Fog  Heavy snow  Heavy precipitations  Wind > 20 kt






- Airport Elevation : 3085 ft
- IATA code : YWL


CYWL - Williams Lake

CURRENT METAR :
  • 291700Z 12008G16KT 15SM FEW110 BKN230 17/05 A3000 RMK AC1CI6 SLP162 DENSITY ALT 4000FT

EXPIRED METARs :
  • 291600Z 11004KT 080V200 15SM FEW110 BKN230 15/05 A3002 RMK AC1CI6 SLP169 DENSITY ALT 3700FT
  • 291500Z VRB02KT 15SM FEW110 BKN230 12/05 A3002 RMK AC1CI6 SLP172 DENSITY ALT 3400FT

TAF TAF CYWL
Valid from the 29 at 13:00 until the 30 at 01:00 UTC


291238Z 2913/3001 VRB03KT P6SM FEW150 BKN200
BECMG 2916/2918 12008KT
FM292100 13008KT P6SM SCT080 BKN200
TEMPO 2921/3001 P6SM -SHRA BKN080
BECMG 2922/2924 07008KT RMK NXT FCST BY 291900Z
CZVR FIR / North America



MET'MAP, your aeronautical weather chart ! - Copyright ORBIFLY December 2007 - Disclaimer

ORBIFLY MET'MAP TEAM :

Programming & Development : Alexandra Zaïnal
Concept & original design : Baudouin d'Aumeries
Assistance for programming : Marc-Olivier Méhu
Technical & hardware support : Manuel Goepfert

Contact : metmap@orbifly.com




SOURCES & CREDITS :

   NOAA       Earth
Advisory